Weather History for KLRJ - January, 2013

Change the Weather History Date:

Saturday, January 12, 2013

  Actual Average Record
Temperature  
Mean Temperature 16 °F -  
Max Temperature 24 °F 27 °F 56 °F (1987)
Min Temperature 8 °F 7 °F -25 °F (1974)
Degree Days  
Heating Degree Days 49    
Moisture  
Dew Point 5 °F    
Average Humidity 64    
Maximum Humidity 74    
Minimum Humidity 53    
Precipitation  
Precipitation 0.00 in - - ()
Sea Level Pressure  
Sea Level Pressure 29.99 in    
Wind  
Wind Speed 18 mph (NW)    
Max Wind Speed 29 mph    
Max Gust Speed 36 mph    
Visibility 10 miles    
Events Snow    
Averages and records for this station are not official NWS values.
T = Trace of Precipitation, MM = Missing Value Source: NWS Daily Summary

Daily Weather History Graph

Daily Weather History Graph

Search for Another Location

Airport or City:

Trip Planner

Search our weather history database for the weather conditions in past years. The results will help you decide how hot, cold, wet, or windy it might be!

Date:

Astronomy

Jan. 12, 2013 Rise Set
Actual Time 7:53 AM CST 5:13 PM CST
Civil Twilight 7:22 AM CST 5:44 PM CST
Nautical Twilight 6:47 AM CST 6:19 PM CST
Astronomical Twilight 6:13 AM CST 6:53 PM CST
Moon 8:10 AM CST (1/12) 6:46 PM CST (1/12)
Length of Visible Light 10h 22m
Length of Day
9h 19m
New Moon, 1% of the Moon is Illuminated
Jan 12
New Moon
Jan 18
First Quarter
Jan 26
Full
Feb 3
Last Quarter
Feb 10
New

Hourly Weather History & Observations

Time (CST) Temp. Windchill Dew Point Humidity Pressure Visibility Wind Dir Wind Speed Gust Speed Precip Events Conditions
12:15 AM 24.8 °F 8.1 °F 17.6 °F 74% 29.64 in 7.0 mi West 28.8 mph 34.5 mph N/A   Overcast
12:55 AM 21.2 °F 4.2 °F 12.2 °F 68% 29.69 in 10.0 mi WNW 25.3 mph 33.4 mph N/A   Overcast
1:35 AM 19.4 °F 3.2 °F 10.4 °F 68% 29.73 in 10.0 mi WNW 20.7 mph 31.1 mph N/A   Mostly Cloudy
1:55 AM 19.4 °F 4.5 °F 10.4 °F 68% 29.74 in 10.0 mi WNW 17.3 mph - N/A   Mostly Cloudy
2:15 AM 19.4 °F 3.6 °F 10.4 °F 68% 29.76 in 5.0 mi WNW 19.6 mph 28.8 mph N/A Snow Light Snow
2:35 AM 19.4 °F 3.6 °F 10.4 °F 68% 29.78 in 10.0 mi WNW 19.6 mph 25.3 mph N/A   Mostly Cloudy
2:55 AM 19.4 °F 5.0 °F 10.4 °F 68% 29.80 in 10.0 mi WNW 16.1 mph 26.5 mph N/A   Mostly Cloudy
3:15 AM 19.4 °F 4.1 °F 10.4 °F 68% 29.81 in 7.0 mi WNW 18.4 mph 27.6 mph N/A Snow Light Snow
3:35 AM 19.4 °F 3.2 °F 8.6 °F 63% 29.82 in 10.0 mi WNW 20.7 mph 29.9 mph N/A   Overcast
3:55 AM 17.6 °F -0.6 °F 8.6 °F 68% 29.83 in 10.0 mi WNW 25.3 mph 32.2 mph N/A   Scattered Clouds
4:15 AM 17.6 °F 2.7 °F 6.8 °F 63% 29.84 in 10.0 mi WNW 16.1 mph 33.4 mph N/A   Clear
4:35 AM 17.6 °F -0.3 °F 6.8 °F 63% 29.84 in 10.0 mi WNW 24.2 mph 35.7 mph N/A   Clear
4:55 AM 17.6 °F 1.7 °F 6.8 °F 63% 29.85 in 10.0 mi WNW 18.4 mph 28.8 mph N/A   Clear
5:15 AM 17.6 °F 3.7 °F 6.8 °F 63% 29.87 in 10.0 mi WNW 13.8 mph 25.3 mph N/A   Clear
5:35 AM 17.6 °F 2.7 °F 6.8 °F 63% 29.87 in 10.0 mi WNW 16.1 mph 26.5 mph N/A   Mostly Cloudy
5:55 AM 17.6 °F 2.7 °F 6.8 °F 63% 29.88 in 10.0 mi WNW 16.1 mph 25.3 mph N/A   Mostly Cloudy
6:15 AM 17.6 °F 1.3 °F 5.0 °F 58% 29.90 in 10.0 mi WNW 19.6 mph 29.9 mph N/A   Clear
6:35 AM 15.8 °F -0.2 °F 5.0 °F 62% 29.91 in 10.0 mi WNW 17.3 mph 25.3 mph N/A   Clear
6:55 AM 15.8 °F -0.2 °F 6.8 °F 68% 29.93 in 10.0 mi WNW 17.3 mph 21.9 mph N/A   Clear
7:15 AM 15.8 °F 2.7 °F 6.8 °F 68% 29.94 in 10.0 mi West 11.5 mph 19.6 mph N/A   Scattered Clouds
7:35 AM 15.8 °F 2.7 °F 6.8 °F 68% 29.94 in 10.0 mi WNW 11.5 mph 17.3 mph N/A   Scattered Clouds
7:55 AM 15.8 °F 1.4 °F 6.8 °F 68% 29.96 in 10.0 mi WNW 13.8 mph - N/A   Scattered Clouds
8:15 AM 15.8 °F 4.2 °F 6.8 °F 68% 29.97 in 10.0 mi West 9.2 mph - N/A   Scattered Clouds
8:35 AM 15.8 °F 1.4 °F 6.8 °F 68% 29.96 in 10.0 mi NW 13.8 mph - N/A   Clear
8:55 AM 15.8 °F -0.2 °F 6.8 °F 68% 29.97 in 10.0 mi WNW 17.3 mph 20.7 mph N/A   Clear
9:15 AM 17.6 °F 3.7 °F 8.6 °F 68% 29.98 in 10.0 mi WNW 13.8 mph - N/A   Mostly Cloudy
9:35 AM 15.8 °F 2.7 °F 8.6 °F 73% 30.00 in 4.0 mi NW 11.5 mph - N/A Snow Light Snow
9:55 AM 17.6 °F 3.7 °F 6.8 °F 63% 30.00 in 10.0 mi WNW 13.8 mph 20.7 mph N/A   Scattered Clouds
10:15 AM 17.6 °F 0.5 °F 6.8 °F 63% 30.01 in 10.0 mi WNW 21.9 mph 28.8 mph N/A   Scattered Clouds
10:35 AM 17.6 °F 1.7 °F 6.8 °F 63% 30.02 in 10.0 mi WNW 18.4 mph 27.6 mph N/A   Mostly Cloudy
10:55 AM 17.6 °F 1.7 °F 3.2 °F 53% 30.04 in 10.0 mi WNW 18.4 mph 25.3 mph N/A   Mostly Cloudy
11:15 AM 17.6 °F 1.7 °F 5.0 °F 58% 30.04 in 10.0 mi WNW 18.4 mph 26.5 mph N/A   Scattered Clouds
11:35 AM 17.6 °F 2.7 °F 3.2 °F 53% 30.04 in 10.0 mi WNW 16.1 mph 19.6 mph N/A   Scattered Clouds
11:55 AM 17.6 °F 1.7 °F 3.2 °F 53% 30.04 in 10.0 mi WNW 18.4 mph - N/A   Mostly Cloudy
12:35 PM 17.6 °F 3.2 °F 5.0 °F 58% 30.04 in 10.0 mi West 15.0 mph 20.7 mph N/A   Overcast
12:55 PM 17.6 °F 4.3 °F 6.8 °F 63% 30.04 in 10.0 mi WNW 12.7 mph 18.4 mph N/A   Overcast
1:15 PM 17.6 °F 3.7 °F 6.8 °F 63% 30.02 in 7.0 mi WNW 13.8 mph - N/A   Overcast
1:35 PM 17.6 °F 3.2 °F 3.2 °F 53% 30.01 in 10.0 mi West 15.0 mph 20.7 mph N/A   Overcast
1:55 PM 17.6 °F 2.7 °F 8.6 °F 68% 30.02 in 5.0 mi WNW 16.1 mph - N/A Snow Light Snow
2:15 PM 17.6 °F 1.7 °F 5.0 °F 58% 30.03 in 5.0 mi WNW 18.4 mph 21.9 mph N/A Snow Light Snow
2:35 PM 17.6 °F 2.2 °F 3.2 °F 53% 30.04 in 10.0 mi WNW 17.3 mph 23.0 mph N/A   Mostly Cloudy
2:55 PM 17.6 °F 2.2 °F 5.0 °F 58% 30.04 in 10.0 mi WNW 17.3 mph - N/A   Overcast
3:15 PM 17.6 °F 3.2 °F 5.0 °F 58% 30.05 in 10.0 mi WNW 15.0 mph 21.9 mph N/A   Overcast
3:35 PM 17.6 °F 3.7 °F 6.8 °F 63% 30.04 in 4.0 mi WNW 13.8 mph 23.0 mph N/A   Haze
3:55 PM 17.6 °F 3.2 °F 6.8 °F 63% 30.05 in 10.0 mi NW 15.0 mph 21.9 mph N/A   Mostly Cloudy
4:15 PM 17.6 °F 2.7 °F 5.0 °F 58% 30.07 in 10.0 mi NW 16.1 mph 21.9 mph N/A   Mostly Cloudy
4:35 PM 15.8 °F 2.1 °F 3.2 °F 58% 30.06 in 10.0 mi NW 12.7 mph 24.2 mph N/A   Scattered Clouds
4:55 PM 15.8 °F 2.1 °F 5.0 °F 62% 30.07 in 10.0 mi NW 12.7 mph 18.4 mph N/A   Scattered Clouds
5:15 PM 14.0 °F -0.2 °F 3.2 °F 62% 30.06 in 10.0 mi NNW 12.7 mph 20.7 mph N/A   Clear
5:35 PM 12.2 °F -1.8 °F 3.2 °F 67% 30.07 in 10.0 mi NW 11.5 mph - N/A   Clear
5:55 PM 12.2 °F -2.5 °F 1.4 °F 62% 30.07 in 10.0 mi NW 12.7 mph 18.4 mph N/A   Clear
6:15 PM 12.2 °F 0.7 °F 3.2 °F 67% 30.10 in 10.0 mi NW 8.1 mph - N/A   Clear
6:35 PM 12.2 °F -3.1 °F 3.2 °F 67% 30.09 in 10.0 mi NW 13.8 mph 17.3 mph N/A   Scattered Clouds
6:55 PM 12.2 °F -0.2 °F 3.2 °F 67% 30.09 in 10.0 mi NNW 9.2 mph - N/A   Scattered Clouds
7:15 PM 12.2 °F -1.8 °F 3.2 °F 67% 30.10 in 10.0 mi NW 11.5 mph - N/A   Scattered Clouds
7:35 PM 12.2 °F -3.1 °F 3.2 °F 67% 30.11 in 10.0 mi NW 13.8 mph 20.7 mph N/A   Scattered Clouds
7:55 PM 12.2 °F -3.1 °F 3.2 °F 67% 30.10 in 10.0 mi NW 13.8 mph 17.3 mph N/A   Mostly Cloudy
8:15 PM 10.4 °F -6.0 °F 1.4 °F 67% 30.11 in 10.0 mi NW 15.0 mph - N/A   Scattered Clouds
8:35 PM 10.4 °F -6.0 °F 1.4 °F 67% 30.11 in 10.0 mi NW 15.0 mph 19.6 mph N/A   Clear
8:55 PM 10.4 °F -2.4 °F 1.4 °F 67% 30.11 in 10.0 mi NNW 9.2 mph - N/A   Scattered Clouds
9:15 PM 10.4 °F -0.4 °F 1.4 °F 67% 30.13 in 10.0 mi NW 6.9 mph - N/A   Clear
9:35 PM 10.4 °F -2.4 °F -0.4 °F 62% 30.13 in 10.0 mi NNW 9.2 mph - N/A   Clear
9:55 PM 8.6 °F -6.3 °F 1.4 °F 73% 30.11 in 10.0 mi NNW 11.5 mph - N/A   Clear
10:15 PM 8.6 °F -5.5 °F 1.4 °F 73% 30.12 in 10.0 mi NW 10.4 mph 17.3 mph N/A   Clear
10:35 PM 8.6 °F -7.7 °F -0.4 °F 67% 30.11 in 10.0 mi NNW 13.8 mph 18.4 mph N/A   Clear
10:55 PM 8.6 °F -6.3 °F -0.4 °F 67% 30.11 in 10.0 mi NNW 11.5 mph - N/A   Clear
11:15 PM 8.6 °F -5.5 °F -0.4 °F 67% 30.10 in 10.0 mi NNW 10.4 mph - N/A   Clear
11:35 PM 8.6 °F -4.7 °F -0.4 °F 67% 30.10 in 10.0 mi NNW 9.2 mph - N/A Snow Light Snow